sensor_id;sensor_type;location;lat;lon;timestamp;P1;durP1;ratioP1;P2;durP2;ratioP2
8656;SDS011;4366;50.764;7.184;2023-05-09T00:01:16;8.30;;;5.67;;
8656;SDS011;4366;50.764;7.184;2023-05-09T00:06:17;5.67;;;4.57;;
8656;SDS011;4366;50.764;7.184;2023-05-09T00:11:20;6.13;;;4.97;;
8656;SDS011;4366;50.764;7.184;2023-05-09T00:16:22;7.13;;;5.30;;
8656;SDS011;4366;50.764;7.184;2023-05-09T00:21:24;7.00;;;5.50;;
8656;SDS011;4366;50.764;7.184;2023-05-09T00:26:26;7.63;;;5.70;;
8656;SDS011;4366;50.764;7.184;2023-05-09T00:31:28;9.53;;;5.77;;
8656;SDS011;4366;50.764;7.184;2023-05-09T00:36:29;9.60;;;5.93;;
8656;SDS011;4366;50.764;7.184;2023-05-09T00:41:32;9.17;;;6.43;;
8656;SDS011;4366;50.764;7.184;2023-05-09T00:46:34;8.63;;;6.53;;
8656;SDS011;4366;50.764;7.184;2023-05-09T00:51:36;6.53;;;5.47;;
8656;SDS011;4366;50.764;7.184;2023-05-09T00:56:39;8.77;;;6.00;;
8656;SDS011;4366;50.764;7.184;2023-05-09T01:01:41;9.47;;;6.20;;
8656;SDS011;4366;50.764;7.184;2023-05-09T01:12:20;7.60;;;5.90;;
8656;SDS011;4366;50.764;7.184;2023-05-09T01:17:54;9.60;;;5.87;;
8656;SDS011;4366;50.764;7.184;2023-05-09T01:28:33;8.73;;;5.87;;
8656;SDS011;4366;50.764;7.184;2023-05-09T01:33:37;9.00;;;6.40;;
8656;SDS011;4366;50.764;7.184;2023-05-09T01:38:41;7.50;;;6.13;;
8656;SDS011;4366;50.764;7.184;2023-05-09T01:43:44;11.00;;;6.93;;
8656;SDS011;4366;50.764;7.184;2023-05-09T01:48:48;9.47;;;6.30;;
8656;SDS011;4366;50.764;7.184;2023-05-09T01:53:50;9.97;;;6.37;;
8656;SDS011;4366;50.764;7.184;2023-05-09T01:58:54;8.13;;;5.67;;
8656;SDS011;4366;50.764;7.184;2023-05-09T02:03:56;10.20;;;6.80;;
8656;SDS011;4366;50.764;7.184;2023-05-09T02:08:58;8.20;;;6.50;;
8656;SDS011;4366;50.764;7.184;2023-05-09T02:14:02;10.43;;;7.07;;
8656;SDS011;4366;50.764;7.184;2023-05-09T02:19:05;8.53;;;6.27;;
8656;SDS011;4366;50.764;7.184;2023-05-09T02:24:06;10.90;;;6.27;;
8656;SDS011;4366;50.764;7.184;2023-05-09T02:29:08;9.43;;;6.43;;
8656;SDS011;4366;50.764;7.184;2023-05-09T02:34:12;7.83;;;5.43;;
8656;SDS011;4366;50.764;7.184;2023-05-09T02:39:14;6.67;;;5.17;;
8656;SDS011;4366;50.764;7.184;2023-05-09T02:44:16;7.87;;;5.83;;
8656;SDS011;4366;50.764;7.184;2023-05-09T02:49:17;7.30;;;5.50;;
8656;SDS011;4366;50.764;7.184;2023-05-09T02:54:33;7.93;;;5.60;;
8656;SDS011;4366;50.764;7.184;2023-05-09T02:59:35;7.93;;;5.70;;
8656;SDS011;4366;50.764;7.184;2023-05-09T03:04:37;7.10;;;5.37;;
8656;SDS011;4366;50.764;7.184;2023-05-09T03:09:38;7.87;;;5.10;;
8656;SDS011;4366;50.764;7.184;2023-05-09T03:14:41;8.43;;;6.10;;
8656;SDS011;4366;50.764;7.184;2023-05-09T03:19:43;6.43;;;5.33;;
8656;SDS011;4366;50.764;7.184;2023-05-09T03:24:45;7.83;;;6.33;;
8656;SDS011;4366;50.764;7.184;2023-05-09T03:29:47;9.23;;;5.87;;
8656;SDS011;4366;50.764;7.184;2023-05-09T03:34:50;8.77;;;6.10;;
8656;SDS011;4366;50.764;7.184;2023-05-09T03:39:52;9.33;;;5.77;;
8656;SDS011;4366;50.764;7.184;2023-05-09T03:44:54;8.40;;;6.17;;
8656;SDS011;4366;50.764;7.184;2023-05-09T03:49:56;9.67;;;5.80;;
8656;SDS011;4366;50.764;7.184;2023-05-09T03:54:57;7.13;;;5.60;;
8656;SDS011;4366;50.764;7.184;2023-05-09T04:00:00;9.00;;;5.73;;
8656;SDS011;4366;50.764;7.184;2023-05-09T04:05:02;8.77;;;6.27;;
8656;SDS011;4366;50.764;7.184;2023-05-09T04:10:04;8.17;;;6.30;;
8656;SDS011;4366;50.764;7.184;2023-05-09T04:15:07;7.83;;;5.47;;
8656;SDS011;4366;50.764;7.184;2023-05-09T04:20:09;7.10;;;5.83;;
8656;SDS011;4366;50.764;7.184;2023-05-09T04:25:12;7.60;;;5.27;;
8656;SDS011;4366;50.764;7.184;2023-05-09T04:30:15;7.70;;;5.87;;
8656;SDS011;4366;50.764;7.184;2023-05-09T04:35:18;7.90;;;5.70;;
8656;SDS011;4366;50.764;7.184;2023-05-09T04:40:22;6.70;;;5.33;;
8656;SDS011;4366;50.764;7.184;2023-05-09T04:45:31;7.63;;;4.83;;
8656;SDS011;4366;50.764;7.184;2023-05-09T04:50:35;9.30;;;6.03;;
8656;SDS011;4366;50.764;7.184;2023-05-09T04:55:37;6.70;;;5.03;;
8656;SDS011;4366;50.764;7.184;2023-05-09T05:00:38;9.80;;;5.53;;
8656;SDS011;4366;50.764;7.184;2023-05-09T05:05:41;8.53;;;6.07;;
8656;SDS011;4366;50.764;7.184;2023-05-09T05:10:43;12.20;;;8.60;;
8656;SDS011;4366;50.764;7.184;2023-05-09T05:15:47;7.03;;;5.47;;
8656;SDS011;4366;50.764;7.184;2023-05-09T05:20:49;8.90;;;6.23;;
8656;SDS011;4366;50.764;7.184;2023-05-09T05:25:51;10.03;;;5.80;;
8656;SDS011;4366;50.764;7.184;2023-05-09T05:30:53;8.37;;;6.03;;
8656;SDS011;4366;50.764;7.184;2023-05-09T05:35:55;6.67;;;5.60;;
8656;SDS011;4366;50.764;7.184;2023-05-09T05:40:56;9.23;;;6.70;;
8656;SDS011;4366;50.764;7.184;2023-05-09T05:46:00;6.50;;;5.07;;
8656;SDS011;4366;50.764;7.184;2023-05-09T05:51:03;7.33;;;5.30;;
8656;SDS011;4366;50.764;7.184;2023-05-09T05:56:05;7.37;;;5.97;;
8656;SDS011;4366;50.764;7.184;2023-05-09T06:01:08;9.00;;;6.03;;
8656;SDS011;4366;50.764;7.184;2023-05-09T06:06:09;7.20;;;5.63;;
8656;SDS011;4366;50.764;7.184;2023-05-09T06:11:11;6.97;;;5.57;;
8656;SDS011;4366;50.764;7.184;2023-05-09T06:16:13;7.50;;;5.37;;
8656;SDS011;4366;50.764;7.184;2023-05-09T06:21:22;6.50;;;5.80;;
8656;SDS011;4366;50.764;7.184;2023-05-09T06:26:24;7.20;;;5.13;;
8656;SDS011;4366;50.764;7.184;2023-05-09T06:31:26;8.03;;;5.67;;
8656;SDS011;4366;50.764;7.184;2023-05-09T06:36:29;6.33;;;4.90;;
8656;SDS011;4366;50.764;7.184;2023-05-09T06:41:30;4.77;;;4.27;;
8656;SDS011;4366;50.764;7.184;2023-05-09T06:46:32;3.77;;;3.40;;
8656;SDS011;4366;50.764;7.184;2023-05-09T06:51:34;4.77;;;3.90;;
8656;SDS011;4366;50.764;7.184;2023-05-09T06:56:36;4.00;;;3.60;;
8656;SDS011;4366;50.764;7.184;2023-05-09T07:01:41;3.57;;;3.27;;
8656;SDS011;4366;50.764;7.184;2023-05-09T07:06:42;3.60;;;3.10;;
8656;SDS011;4366;50.764;7.184;2023-05-09T07:11:44;3.10;;;2.90;;
8656;SDS011;4366;50.764;7.184;2023-05-09T07:16:47;3.43;;;3.13;;
8656;SDS011;4366;50.764;7.184;2023-05-09T07:21:48;3.30;;;3.00;;
8656;SDS011;4366;50.764;7.184;2023-05-09T07:26:50;3.23;;;2.93;;
8656;SDS011;4366;50.764;7.184;2023-05-09T07:31:52;3.03;;;2.83;;
8656;SDS011;4366;50.764;7.184;2023-05-09T07:36:53;4.13;;;3.33;;
8656;SDS011;4366;50.764;7.184;2023-05-09T07:41:55;2.90;;;2.60;;
8656;SDS011;4366;50.764;7.184;2023-05-09T07:46:56;3.17;;;2.60;;
8656;SDS011;4366;50.764;7.184;2023-05-09T07:52:02;3.20;;;2.77;;
8656;SDS011;4366;50.764;7.184;2023-05-09T07:57:04;2.77;;;2.50;;
8656;SDS011;4366;50.764;7.184;2023-05-09T08:02:06;2.70;;;2.50;;
8656;SDS011;4366;50.764;7.184;2023-05-09T08:07:08;2.70;;;2.50;;
8656;SDS011;4366;50.764;7.184;2023-05-09T08:12:12;2.87;;;2.67;;
8656;SDS011;4366;50.764;7.184;2023-05-09T08:17:14;3.20;;;2.43;;
8656;SDS011;4366;50.764;7.184;2023-05-09T08:22:16;2.33;;;2.20;;
8656;SDS011;4366;50.764;7.184;2023-05-09T08:27:19;3.73;;;2.53;;
8656;SDS011;4366;50.764;7.184;2023-05-09T08:32:20;2.27;;;2.07;;
8656;SDS011;4366;50.764;7.184;2023-05-09T08:37:22;2.70;;;2.50;;
8656;SDS011;4366;50.764;7.184;2023-05-09T08:42:23;2.67;;;2.47;;
8656;SDS011;4366;50.764;7.184;2023-05-09T08:47:26;2.28;;;2.17;;
8656;SDS011;4366;50.764;7.184;2023-05-09T08:52:30;2.33;;;2.03;;
8656;SDS011;4366;50.764;7.184;2023-05-09T08:57:32;2.05;;;1.95;;
8656;SDS011;4366;50.764;7.184;2023-05-09T09:02:40;2.15;;;2.05;;
8656;SDS011;4366;50.764;7.184;2023-05-09T09:07:42;1.90;;;1.80;;
8656;SDS011;4366;50.764;7.184;2023-05-09T09:12:46;2.30;;;2.10;;
8656;SDS011;4366;50.764;7.184;2023-05-09T09:17:50;2.50;;;1.97;;
8656;SDS011;4366;50.764;7.184;2023-05-09T09:22:59;1.83;;;1.73;;
8656;SDS011;4366;50.764;7.184;2023-05-09T09:28:05;2.47;;;2.10;;
8656;SDS011;4366;50.764;7.184;2023-05-09T09:33:07;1.43;;;1.33;;
8656;SDS011;4366;50.764;7.184;2023-05-09T09:38:09;1.67;;;1.57;;
8656;SDS011;4366;50.764;7.184;2023-05-09T09:43:11;1.17;;;1.17;;
8656;SDS011;4366;50.764;7.184;2023-05-09T09:48:13;1.10;;;1.03;;
8656;SDS011;4366;50.764;7.184;2023-05-09T09:53:15;1.30;;;1.30;;
8656;SDS011;4366;50.764;7.184;2023-05-09T09:58:20;1.70;;;1.60;;
8656;SDS011;4366;50.764;7.184;2023-05-09T10:03:33;1.38;;;1.30;;
8656;SDS011;4366;50.764;7.184;2023-05-09T10:08:36;1.40;;;1.38;;
8656;SDS011;4366;50.764;7.184;2023-05-09T10:13:38;1.65;;;1.55;;
8656;SDS011;4366;50.764;7.184;2023-05-09T10:18:39;2.15;;;1.98;;
8656;SDS011;4366;50.764;7.184;2023-05-09T10:23:44;1.50;;;1.45;;
8656;SDS011;4366;50.764;7.184;2023-05-09T10:28:47;2.90;;;1.60;;
8656;SDS011;4366;50.764;7.184;2023-05-09T10:33:50;1.85;;;1.75;;
8656;SDS011;4366;50.764;7.184;2023-05-09T10:38:53;1.70;;;1.60;;
8656;SDS011;4366;50.764;7.184;2023-05-09T10:43:55;1.50;;;1.48;;
8656;SDS011;4366;50.764;7.184;2023-05-09T10:48:58;1.42;;;1.35;;
8656;SDS011;4366;50.764;7.184;2023-05-09T10:54:01;1.40;;;1.30;;
8656;SDS011;4366;50.764;7.184;2023-05-09T11:04:38;1.30;;;1.30;;
8656;SDS011;4366;50.764;7.184;2023-05-09T11:09:41;0.98;;;0.98;;
8656;SDS011;4366;50.764;7.184;2023-05-09T11:14:45;1.02;;;1.02;;
8656;SDS011;4366;50.764;7.184;2023-05-09T11:24:51;1.25;;;1.08;;
8656;SDS011;4366;50.764;7.184;2023-05-09T11:29:55;0.85;;;0.85;;
8656;SDS011;4366;50.764;7.184;2023-05-09T11:35:09;1.00;;;1.00;;
8656;SDS011;4366;50.764;7.184;2023-05-09T11:40:13;0.85;;;0.85;;
8656;SDS011;4366;50.764;7.184;2023-05-09T11:45:16;1.27;;;1.27;;
8656;SDS011;4366;50.764;7.184;2023-05-09T11:50:18;0.90;;;0.90;;
8656;SDS011;4366;50.764;7.184;2023-05-09T11:55:21;1.20;;;1.20;;
8656;SDS011;4366;50.764;7.184;2023-05-09T12:00:24;1.15;;;1.15;;
8656;SDS011;4366;50.764;7.184;2023-05-09T12:05:26;0.85;;;0.85;;
8656;SDS011;4366;50.764;7.184;2023-05-09T12:10:29;1.20;;;1.20;;
8656;SDS011;4366;50.764;7.184;2023-05-09T12:15:37;1.02;;;1.02;;
8656;SDS011;4366;50.764;7.184;2023-05-09T12:20:44;1.67;;;1.10;;
8656;SDS011;4366;50.764;7.184;2023-05-09T12:25:52;0.98;;;0.98;;
8656;SDS011;4366;50.764;7.184;2023-05-09T12:30:54;1.30;;;1.30;;
8656;SDS011;4366;50.764;7.184;2023-05-09T12:36:15;1.15;;;1.15;;
8656;SDS011;4366;50.764;7.184;2023-05-09T12:41:17;1.20;;;1.20;;
8656;SDS011;4366;50.764;7.184;2023-05-09T12:46:37;1.17;;;1.17;;
8656;SDS011;4366;50.764;7.184;2023-05-09T12:51:46;1.35;;;1.25;;
8656;SDS011;4366;50.764;7.184;2023-05-09T12:56:51;1.35;;;1.27;;
8656;SDS011;4366;50.764;7.184;2023-05-09T13:01:58;1.05;;;1.05;;
8656;SDS011;4366;50.764;7.184;2023-05-09T13:07:06;1.10;;;1.10;;
8656;SDS011;4366;50.764;7.184;2023-05-09T13:12:09;1.33;;;1.23;;
8656;SDS011;4366;50.764;7.184;2023-05-09T13:17:10;1.20;;;1.20;;
8656;SDS011;4366;50.764;7.184;2023-05-09T13:22:12;1.83;;;1.20;;
8656;SDS011;4366;50.764;7.184;2023-05-09T13:27:14;1.25;;;1.25;;
8656;SDS011;4366;50.764;7.184;2023-05-09T13:32:16;1.13;;;1.13;;
8656;SDS011;4366;50.764;7.184;2023-05-09T13:37:18;1.13;;;1.08;;
8656;SDS011;4366;50.764;7.184;2023-05-09T13:42:19;1.05;;;1.05;;
8656;SDS011;4366;50.764;7.184;2023-05-09T13:47:22;0.80;;;0.80;;
8656;SDS011;4366;50.764;7.184;2023-05-09T13:52:24;1.60;;;1.13;;
8656;SDS011;4366;50.764;7.184;2023-05-09T13:57:25;1.25;;;1.15;;
8656;SDS011;4366;50.764;7.184;2023-05-09T14:02:28;1.15;;;1.05;;
8656;SDS011;4366;50.764;7.184;2023-05-09T14:07:30;0.80;;;0.80;;
8656;SDS011;4366;50.764;7.184;2023-05-09T14:12:31;1.33;;;1.23;;
8656;SDS011;4366;50.764;7.184;2023-05-09T14:17:33;1.27;;;1.25;;
8656;SDS011;4366;50.764;7.184;2023-05-09T14:22:35;1.20;;;1.20;;
8656;SDS011;4366;50.764;7.184;2023-05-09T14:27:37;1.65;;;1.55;;
8656;SDS011;4366;50.764;7.184;2023-05-09T14:32:38;2.10;;;1.90;;
8656;SDS011;4366;50.764;7.184;2023-05-09T14:37:40;2.75;;;2.33;;
8656;SDS011;4366;50.764;7.184;2023-05-09T14:42:43;2.55;;;2.35;;
8656;SDS011;4366;50.764;7.184;2023-05-09T14:47:45;3.10;;;2.80;;
8656;SDS011;4366;50.764;7.184;2023-05-09T14:52:48;2.83;;;2.42;;
8656;SDS011;4366;50.764;7.184;2023-05-09T14:57:51;1.50;;;1.45;;
8656;SDS011;4366;50.764;7.184;2023-05-09T15:02:53;1.00;;;1.00;;
8656;SDS011;4366;50.764;7.184;2023-05-09T15:07:56;1.17;;;1.10;;
8656;SDS011;4366;50.764;7.184;2023-05-09T15:12:58;1.53;;;1.47;;
8656;SDS011;4366;50.764;7.184;2023-05-09T15:18:00;1.47;;;1.37;;
8656;SDS011;4366;50.764;7.184;2023-05-09T15:23:02;1.60;;;1.50;;
8656;SDS011;4366;50.764;7.184;2023-05-09T15:28:05;1.40;;;1.30;;
8656;SDS011;4366;50.764;7.184;2023-05-09T15:33:07;1.50;;;1.40;;
8656;SDS011;4366;50.764;7.184;2023-05-09T15:38:09;1.67;;;1.47;;
8656;SDS011;4366;50.764;7.184;2023-05-09T15:43:12;1.80;;;1.40;;
8656;SDS011;4366;50.764;7.184;2023-05-09T15:48:14;3.00;;;1.70;;
8656;SDS011;4366;50.764;7.184;2023-05-09T15:53:16;3.07;;;1.57;;
8656;SDS011;4366;50.764;7.184;2023-05-09T15:58:18;1.43;;;1.33;;
8656;SDS011;4366;50.764;7.184;2023-05-09T16:03:20;1.70;;;1.60;;
8656;SDS011;4366;50.764;7.184;2023-05-09T16:08:23;1.60;;;1.50;;
8656;SDS011;4366;50.764;7.184;2023-05-09T16:13:25;1.77;;;1.67;;
8656;SDS011;4366;50.764;7.184;2023-05-09T16:18:27;1.70;;;1.57;;
8656;SDS011;4366;50.764;7.184;2023-05-09T16:23:29;1.50;;;1.40;;
8656;SDS011;4366;50.764;7.184;2023-05-09T16:28:30;2.00;;;1.40;;
8656;SDS011;4366;50.764;7.184;2023-05-09T16:33:33;1.73;;;1.60;;
8656;SDS011;4366;50.764;7.184;2023-05-09T16:38:35;1.93;;;1.83;;
8656;SDS011;4366;50.764;7.184;2023-05-09T16:43:37;1.90;;;1.80;;
8656;SDS011;4366;50.764;7.184;2023-05-09T16:48:38;1.67;;;1.57;;
8656;SDS011;4366;50.764;7.184;2023-05-09T16:53:40;2.23;;;2.03;;
8656;SDS011;4366;50.764;7.184;2023-05-09T16:58:42;3.53;;;2.03;;
8656;SDS011;4366;50.764;7.184;2023-05-09T17:03:45;2.90;;;2.30;;
8656;SDS011;4366;50.764;7.184;2023-05-09T17:08:46;1.90;;;1.73;;
8656;SDS011;4366;50.764;7.184;2023-05-09T17:13:48;1.90;;;1.80;;
8656;SDS011;4366;50.764;7.184;2023-05-09T17:18:50;2.87;;;2.20;;
8656;SDS011;4366;50.764;7.184;2023-05-09T17:23:52;3.07;;;2.53;;
8656;SDS011;4366;50.764;7.184;2023-05-09T17:28:54;2.17;;;2.00;;
8656;SDS011;4366;50.764;7.184;2023-05-09T17:33:55;2.00;;;1.90;;
8656;SDS011;4366;50.764;7.184;2023-05-09T17:38:57;2.37;;;2.27;;
8656;SDS011;4366;50.764;7.184;2023-05-09T17:43:59;1.97;;;1.80;;
8656;SDS011;4366;50.764;7.184;2023-05-09T17:49:01;2.60;;;2.30;;
8656;SDS011;4366;50.764;7.184;2023-05-09T17:54:03;2.13;;;2.00;;
8656;SDS011;4366;50.764;7.184;2023-05-09T17:59:05;3.53;;;2.23;;
8656;SDS011;4366;50.764;7.184;2023-05-09T18:04:08;2.73;;;2.30;;
8656;SDS011;4366;50.764;7.184;2023-05-09T18:09:09;2.77;;;2.57;;
8656;SDS011;4366;50.764;7.184;2023-05-09T18:14:11;3.47;;;2.80;;
8656;SDS011;4366;50.764;7.184;2023-05-09T18:19:13;2.43;;;2.23;;
8656;SDS011;4366;50.764;7.184;2023-05-09T18:24:14;3.93;;;2.70;;
8656;SDS011;4366;50.764;7.184;2023-05-09T18:29:17;2.50;;;2.30;;
8656;SDS011;4366;50.764;7.184;2023-05-09T18:34:19;2.80;;;2.60;;
8656;SDS011;4366;50.764;7.184;2023-05-09T18:39:21;2.73;;;2.50;;
8656;SDS011;4366;50.764;7.184;2023-05-09T18:44:23;2.57;;;2.37;;
8656;SDS011;4366;50.764;7.184;2023-05-09T18:49:25;2.47;;;2.20;;
8656;SDS011;4366;50.764;7.184;2023-05-09T18:54:27;2.50;;;2.30;;
8656;SDS011;4366;50.764;7.184;2023-05-09T18:59:29;2.80;;;2.60;;
8656;SDS011;4366;50.764;7.184;2023-05-09T19:04:30;3.57;;;3.03;;
8656;SDS011;4366;50.764;7.184;2023-05-09T19:09:32;2.67;;;2.37;;
8656;SDS011;4366;50.764;7.184;2023-05-09T19:14:34;3.20;;;2.43;;
8656;SDS011;4366;50.764;7.184;2023-05-09T19:19:38;2.60;;;2.40;;
8656;SDS011;4366;50.764;7.184;2023-05-09T19:24:41;2.73;;;2.53;;
8656;SDS011;4366;50.764;7.184;2023-05-09T19:29:42;3.10;;;2.77;;
8656;SDS011;4366;50.764;7.184;2023-05-09T19:34:44;2.80;;;2.60;;
8656;SDS011;4366;50.764;7.184;2023-05-09T19:39:45;2.43;;;2.23;;
8656;SDS011;4366;50.764;7.184;2023-05-09T19:44:47;2.90;;;2.70;;
8656;SDS011;4366;50.764;7.184;2023-05-09T19:49:49;2.47;;;2.27;;
8656;SDS011;4366;50.764;7.184;2023-05-09T19:54:51;2.40;;;2.10;;
8656;SDS011;4366;50.764;7.184;2023-05-09T19:59:52;1.00;;;1.00;;
8656;SDS011;4366;50.764;7.184;2023-05-09T20:04:55;0.83;;;0.80;;
8656;SDS011;4366;50.764;7.184;2023-05-09T20:09:57;0.67;;;0.67;;
8656;SDS011;4366;50.764;7.184;2023-05-09T20:14:59;0.73;;;0.60;;
8656;SDS011;4366;50.764;7.184;2023-05-09T20:20:01;0.50;;;0.50;;
8656;SDS011;4366;50.764;7.184;2023-05-09T20:25:03;0.70;;;0.70;;
8656;SDS011;4366;50.764;7.184;2023-05-09T20:30:05;0.40;;;0.40;;
8656;SDS011;4366;50.764;7.184;2023-05-09T20:35:07;0.33;;;0.33;;
8656;SDS011;4366;50.764;7.184;2023-05-09T20:40:10;0.40;;;0.40;;
8656;SDS011;4366;50.764;7.184;2023-05-09T20:45:12;0.43;;;0.43;;
8656;SDS011;4366;50.764;7.184;2023-05-09T20:50:13;0.30;;;0.30;;
8656;SDS011;4366;50.764;7.184;2023-05-09T20:55:15;0.20;;;0.20;;
8656;SDS011;4366;50.764;7.184;2023-05-09T21:00:17;0.30;;;0.30;;
8656;SDS011;4366;50.764;7.184;2023-05-09T21:05:19;0.37;;;0.37;;
8656;SDS011;4366;50.764;7.184;2023-05-09T21:10:21;0.30;;;0.30;;
8656;SDS011;4366;50.764;7.184;2023-05-09T21:15:23;0.40;;;0.40;;
8656;SDS011;4366;50.764;7.184;2023-05-09T21:20:25;0.50;;;0.50;;
8656;SDS011;4366;50.764;7.184;2023-05-09T21:25:27;0.50;;;0.50;;
8656;SDS011;4366;50.764;7.184;2023-05-09T21:30:29;0.43;;;0.43;;
8656;SDS011;4366;50.764;7.184;2023-05-09T21:35:30;0.30;;;0.30;;
8656;SDS011;4366;50.764;7.184;2023-05-09T21:40:32;0.20;;;0.20;;
8656;SDS011;4366;50.764;7.184;2023-05-09T21:45:34;0.53;;;0.53;;
8656;SDS011;4366;50.764;7.184;2023-05-09T21:50:35;1.43;;;0.80;;
8656;SDS011;4366;50.764;7.184;2023-05-09T21:55:37;0.30;;;0.30;;
8656;SDS011;4366;50.764;7.184;2023-05-09T22:00:39;0.50;;;0.50;;
8656;SDS011;4366;50.764;7.184;2023-05-09T22:05:40;0.30;;;0.30;;
8656;SDS011;4366;50.764;7.184;2023-05-09T22:10:42;0.40;;;0.40;;
8656;SDS011;4366;50.764;7.184;2023-05-09T22:15:44;0.40;;;0.40;;
8656;SDS011;4366;50.764;7.184;2023-05-09T22:20:46;0.40;;;0.40;;
8656;SDS011;4366;50.764;7.184;2023-05-09T22:25:47;0.50;;;0.50;;
8656;SDS011;4366;50.764;7.184;2023-05-09T22:30:50;0.47;;;0.47;;
8656;SDS011;4366;50.764;7.184;2023-05-09T22:35:51;0.53;;;0.53;;
8656;SDS011;4366;50.764;7.184;2023-05-09T22:40:53;0.50;;;0.50;;
8656;SDS011;4366;50.764;7.184;2023-05-09T22:45:55;0.60;;;0.60;;
8656;SDS011;4366;50.764;7.184;2023-05-09T22:50:57;0.47;;;0.47;;
8656;SDS011;4366;50.764;7.184;2023-05-09T22:55:58;0.50;;;0.50;;
8656;SDS011;4366;50.764;7.184;2023-05-09T23:01:00;0.93;;;0.50;;
8656;SDS011;4366;50.764;7.184;2023-05-09T23:06:02;0.50;;;0.50;;
8656;SDS011;4366;50.764;7.184;2023-05-09T23:11:04;0.50;;;0.50;;
8656;SDS011;4366;50.764;7.184;2023-05-09T23:16:05;0.50;;;0.50;;
8656;SDS011;4366;50.764;7.184;2023-05-09T23:21:07;0.93;;;0.93;;
8656;SDS011;4366;50.764;7.184;2023-05-09T23:26:10;0.53;;;0.53;;
8656;SDS011;4366;50.764;7.184;2023-05-09T23:31:12;0.60;;;0.60;;
8656;SDS011;4366;50.764;7.184;2023-05-09T23:36:13;0.50;;;0.50;;
8656;SDS011;4366;50.764;7.184;2023-05-09T23:41:15;0.60;;;0.60;;
8656;SDS011;4366;50.764;7.184;2023-05-09T23:46:17;0.70;;;0.70;;
8656;SDS011;4366;50.764;7.184;2023-05-09T23:51:19;0.70;;;0.70;;
8656;SDS011;4366;50.764;7.184;2023-05-09T23:56:22;0.60;;;0.60;;
